Tiempo atmosférico en la estación meteorológica de Machichaco, Bizkaia (93 m.)



Fecha
DESCASC
Temp. máxima en grados centígrados (hora)
DESCASC
Temp. mínima en grados centígrados (hora)
DESCASC
Temp. media en grados centígrados
DESCASC
Racha de viento máxima en m/sg (hora)
DESCASC
Velocidad máxima media en intervalos de 10 minutos(hora)
DESCASC
Precipitaciones diarias en mm
DESCASC
Precipitaciones de 00:00 a 06:00 en mm
DESCASC
Precipitaciones de 06:00 a 12:00 en mm
DESCASC
Precipitaciones de 12:00 a 18:00 en mm
DESCASC
Precipitaciones de 18:00 a 24:00 en mm
DESCASC
13-10-2019 27.9 (15:00) 17 (23:40) 22.4 15.56 (13:10) 8.61 (18:00) 0 0 0 0 0
12-10-2019 27.6 (18:10) 17.3 (02:40) 22.4 14.72 (21:30) 9.17 (00:10) 0 0 0 0 0
11-10-2019 28 (15:20) 14.4 (05:20) 21.2 16.39 (09:40) 10.28 (09:30) 0 0 0 0 0
10-10-2019 19.3 (13:10) 15 (00:00) 17.1 8.89 (00:30) 6.67 (19:20) 0 0 0 0 0
09-10-2019 17.9 (17:30) 13.8 (00:00) 15.8 18.06 (10:50) 13.61 (10:50) 3.2 0.6 2.4 0.2 0
08-10-2019 23.4 (15:10) 15.3 (00:00) 19.3 16.67 (18:10) 14.17 (17:50) 0.8 0 0 0 0.8
07-10-2019 19.8 (18:00) 13.8 (00:00) 16.8 7.5 (14:10) 5.83 (13:40) 0 0 0 0 0
06-10-2019 18 (14:10) 15.7 (00:00) 16.8 17.5 (12:20) 10.83 (12:20) 2.6 0 0 2.6 0
05-10-2019 19.1 (14:00) 14 (00:00) 16.6 6.11 (03:40) 3.89 (03:40) 0.4 0.4 0 0 0
04-10-2019 19.2 (03:10) 16.1 (00:00) 17.7 13.89 (10:10) 9.72 (10:10) 10.2 0 4.8 1.4 4
03-10-2019 20.2 (17:40) 13.7 (00:00) 17 4.72 (22:40) 3.06 (22:10) 0 0 0 0 0
02-10-2019 19 (00:00) 15.2 (00:00) 17.1 30.83 (03:10) 25.83 (03:10) 27 1.8 11.6 13.6 0
01-10-2019 21 (11:50) 18.1 (00:00) 19.6 23.06 (23:30) 18.61 (22:30) 0 0 0 0 0
30-09-2019 23 (14:40) 18 (00:00) 20.5 7.22 (14:00) 5 (14:00) 0 0 0 0 0
29-09-2019 26.2 (15:40) 16 (00:00) 21.1 10 (22:30) 7.78 (22:20) 0 0 0 0 0
28-09-2019 20.3 (13:50) 15.9 (00:00) 18.1 11.39 (00:20) 7.78 (18:10) 0 0 0 0 0
27-09-2019 22 (10:20) 15.7 (00:00) 18.8 15.56 (11:30) 11.94 (11:40) 0.2 0 0 0 0.2
26-09-2019 21.7 (14:30) 16.8 (00:00) 19.3 7.78 (22:00) 4.44 (21:50) 0 0 0 0 0
25-09-2019 19.6 (14:10) 16.6 (00:00) 18.1 15.83 (15:40) 12.78 (13:50) 0.2 0.2 0 0 0
24-09-2019 24.4 (06:10) 17.4 (00:00) 20.9 17.22 (05:40) 14.17 (13:40) 0.2 0 0.2 0 0
23-09-2019 21.8 (13:40) 16.9 (00:00) 19.3 5.28 (07:50) 3.06 (07:10) 0.4 0 0 0 0.4
22-09-2019 24.5 (00:30) 15.2 (00:00) 19.8 18.33 (01:40) 13.61 (02:50) 9.2 7.4 1.8 0 0
21-09-2019 28.1 (14:10) 21.3 (00:00) 24.7 13.33 (22:50) 6.94 (23:20) 0 0 0 0 0
20-09-2019 30.9 (16:20) 16.8 (00:00) 23.8 17.78 (20:50) 11.39 (21:10) 4.8 0 0 0 4.8
19-09-2019 22.2 (15:10) 16.6 (00:00) 19.4 11.11 (00:10) 7.22 (05:30) 0 0 0 0 0
18-09-2019 20.9 (15:20) 18.5 (00:00) 19.7 13.89 (13:10) 10.28 (13:00) 0 0 0 0 0
17-09-2019 23.1 (13:40) 18.3 (00:00) 20.7 9.17 (23:59) 6.94 (23:59) 0 0 0 0 0
16-09-2019 22.9 (15:10) 18.8 (00:00) 20.8 7.22 (16:20) 5 (13:50) 0.8 0.4 0.4 0 0

Gráficas

Temp. máximas Temp. mínimas Temp. medias Precipitaciones Rachas de viento máximas Velocidades máximas media en intervalos de 10 minutos

Datos horarios

Fecha y hora oficial Temperatura (ºC) Velocidad del viento (km/h) Dirección del viento Racha (km/h) Dirección de racha Precipitación (mm) Presión (hPa) Tendencia (hPa) Humedad (%)
2019-10-15 23:00:00 17.4 28 Sur 41 Sudoeste 0 -- -- 49
2019-10-15 22:00:00 17.3 25 Sudoeste 45 Sudoeste 0 -- -- 48
2019-10-15 21:00:00 17.4 18 Sudoeste 37 Sudoeste 0 -- -- 48
2019-10-15 20:00:00 16.8 12 Sudoeste 24 Sur 0 -- -- 50
2019-10-15 19:00:00 17 4 Sudeste 11 Sudeste 0 -- -- 60
2019-10-15 18:00:00 18.3 6 Sudeste 9 Sudeste 0 -- -- 57
2019-10-15 17:00:00 18.9 2 Sudoeste 12 Sudoeste 0 -- -- 49
2019-10-15 16:00:00 18.5 8 Oeste 28 Oeste 0 -- -- 50
2019-10-15 15:00:00 18.3 18 Oeste 25 Oeste 0 -- -- 48
2019-10-15 14:00:00 18.2 14 Oeste 36 Sudoeste 0 -- -- 48
2019-10-15 13:00:00 17.6 10 Sudoeste 39 Sudoeste 0 -- -- 52
2019-10-15 12:00:00 16.2 17 Oeste 47 Oeste 0 -- -- 55
2019-10-15 11:00:00 15.4 22 Sudoeste 48 Sudoeste 0 -- -- 56
2019-10-15 10:00:00 14.3 18 Sudoeste 54 Sudoeste 0 -- -- 59
2019-10-15 09:00:00 12.7 13 Sudoeste 54 Oeste 0 -- -- 70
2019-10-15 08:00:00 13.8 31 Oeste 57 Oeste 0 -- -- 68
2019-10-15 07:00:00 13.3 26 Oeste 59 Oeste 0 -- -- 63
2019-10-15 06:00:00 12.7 25 Oeste 50 Oeste 0.8 -- -- 70
2019-10-15 05:00:00 13.6 24 Oeste 62 Sudoeste 0 -- -- 63
2019-10-15 04:00:00 13.4 29 Oeste 61 Oeste 0 -- -- 69
2019-10-15 03:00:00 13.9 36 Oeste 75 Oeste 0 -- -- 71
2019-10-15 02:00:00 13.8 32 Oeste 57 Oeste 0 -- -- 72
2019-10-15 01:00:00 13.2 32 Oeste 60 Oeste 0 -- -- 73
2019-10-15 00:00:00 12.9 25 Oeste 57 Sudoeste 0 -- -- 84
2019-10-14 23:00:00 13 23 Oeste 69 Oeste 1.8 -- -- 93
2019-10-14 22:00:00 12.8 45 Oeste 76 Oeste 2.4 -- -- 94
2019-10-14 21:00:00 13.6 47 Oeste -- -- 7.4 -- -- 90
2019-10-14 20:00:00 16.4 22 Noroeste 28 Oeste 0 -- -- 82
2019-10-14 19:00:00 15.8 5 Sudoeste 12 Sudeste 0.4 -- -- 85
2019-10-14 18:00:00 16.6 5 Este 18 Noroeste 0 -- -- 85
2019-10-14 17:00:00 17 15 Noroeste 27 Oeste 0 -- -- 84
2019-10-14 16:00:00 16.9 20 Oeste 35 Oeste 0 -- -- 86
2019-10-14 15:00:00 17.2 24 Oeste 33 Oeste 0 -- -- 82
2019-10-14 14:00:00 16 31 Oeste 41 Oeste 0.4 -- -- 88
2019-10-14 13:00:00 15.7 20 Oeste 45 Oeste 5.2 -- -- 95
2019-10-14 12:00:00 16.1 37 Oeste 58 Oeste 0 -- -- 89
2019-10-14 11:00:00 17.7 23 Oeste 40 Oeste 0 -- -- 80
2019-10-14 10:00:00 16.7 33 Oeste 59 Oeste 0 -- -- 85
2019-10-14 09:00:00 17 45 Oeste 70 Oeste 0 -- -- 86
2019-10-14 08:00:00 17.3 53 Oeste 76 Oeste 0 -- -- 91
2019-10-14 07:00:00 21.9 11 Sur 26 Sudoeste 0 -- -- 57
2019-10-14 06:00:00 20.9 10 Sudeste 20 Sudeste 0 -- -- 61
2019-10-14 05:00:00 20.9 12 Este 24 Sudeste 0 -- -- 60
2019-10-14 04:00:00 22.8 13 Sur 26 Sudeste 0 -- -- 51
2019-10-14 03:00:00 20.9 8 Sudeste 18 Sudeste 0 -- -- 51
2019-10-14 02:00:00 21.8 8 Sudeste 19 Sur 0 -- -- 46
2019-10-14 01:00:00 22.2 11 Sur 19 Sudoeste 0 -- -- 43
2019-10-14 00:00:00 17.2 9 Sudeste 14 Este 0 -- -- 82
2019-10-13 23:00:00 17.2 6 Sudeste 8 Sudoeste 0 -- -- 87
2019-10-13 22:00:00 17.8 2 Sudeste 10 Sudeste 0 -- -- 85
2019-10-13 21:00:00 18.1 8 Sudeste 19 Oeste 0 -- -- 87
2019-10-13 20:00:00 18.9 15 Oeste 32 Oeste 0 -- -- 89
2019-10-13 19:00:00 19.9 26 Oeste 39 Oeste 0 -- -- 85
2019-10-13 18:00:00 21.9 31 Oeste 48 Oeste 0 -- -- 69
2019-10-13 17:00:00 25.9 13 Oeste 20 Oeste 0 -- -- 45
2019-10-13 16:00:00 25.9 10 Oeste 24 Oeste 0 -- -- 50
2019-10-13 15:00:00 27.9 8 Sudoeste 31 Sur 0 -- -- 45
2019-10-13 14:00:00 26.9 14 Sudoeste 56 Oeste 0 -- -- 46
2019-10-13 13:00:00 26.2 10 Sudeste 35 Sur 0 -- -- 47
2019-10-13 12:00:00 26 6 Este 28 Nordeste 0 -- -- 48
2019-10-13 11:00:00 24.2 8 Noroeste 21 Este 0 -- -- 51
2019-10-13 10:00:00 23.6 5 Sudeste 16 Este 0 -- -- 57
2019-10-13 09:00:00 21.3 8 Sudeste 13 Este 0 -- -- 62
2019-10-13 08:00:00 21.1 5 Sudeste 14 Sur 0 -- -- 56
2019-10-13 07:00:00 22.3 7 Sur 17 Sur 0 -- -- 51
2019-10-13 06:00:00 21.8 6 Este 17 Este 0 -- -- 54
2019-10-13 05:00:00 21.6 9 Este 22 Este 0 -- -- 59
2019-10-13 04:00:00 22.1 13 Este 23 Este 0 -- -- 62
2019-10-13 03:00:00 23.3 9 Sudeste 20 Este 0 -- -- 56
2019-10-13 02:00:00 23.3 10 Este 25 Este 0 -- -- 58
2019-10-13 01:00:00 23.6 8 Sudeste 21 Este 0 -- -- 57
2019-10-13 00:00:00 24.5 10 Sudeste 36 Sudeste 0 -- -- 55
2019-10-12 23:00:00 24.8 11 Sudeste 36 Sur 0 -- -- 51
2019-10-12 22:00:00 24.5 13 Sudeste 53 Sur 0 -- -- 50
2019-10-12 21:00:00 25.7 14 Sur 35 Sur 0 -- -- 50
2019-10-12 20:00:00 26 13 Sudeste 29 Sudeste 0 -- -- 48
2019-10-12 19:00:00 26.9 9 Sudeste 30 Sudeste 0 -- -- 49
2019-10-12 18:00:00 27.3 12 Sudeste 26 Sudeste 0 -- -- 51
2019-10-12 17:00:00 26.3 8 Sudeste 17 Sudeste 0 -- -- 53
2019-10-12 16:00:00 26 6 Este 23 Sur 0 -- -- 56
2019-10-12 15:00:00 25.7 10 Sur 31 Sur 0 -- -- 52
2019-10-12 14:00:00 25.3 12 Sur 28 Sur 0 -- -- 52
2019-10-12 13:00:00 24.8 16 Sur 37 Sudeste 0 -- -- 54
2019-10-12 12:00:00 24.4 11 Sur 27 Sudeste 0 -- -- 56
2019-10-12 11:00:00 24.4 16 Sur 32 Sur 0 -- -- 55
2019-10-12 10:00:00 22.8 12 Sur 27 Sur 0 -- -- 62
2019-10-12 09:00:00 18 10 Sudeste 14 Sudeste 0 -- -- 94
2019-10-12 08:00:00 17.4 5 Sudeste 14 Oeste 0 -- -- 95
2019-10-12 07:00:00 17.4 11 Oeste 19 Sudoeste 0 -- -- 95
2019-10-12 06:00:00 17.4 13 Sudoeste 19 Sudoeste 0 -- -- 95
2019-10-12 05:00:00 17.4 15 Sudoeste 21 Sudoeste 0 -- -- 94
2019-10-12 04:00:00 17.4 17 Oeste 29 Sudoeste 0 -- -- 94
2019-10-12 03:00:00 17.3 17 Oeste 26 Oeste 0 -- -- 93
2019-10-12 02:00:00 17.5 11 Oeste 36 Oeste 0 -- -- 93
2019-10-12 01:00:00 17.9 27 Oeste 49 Oeste 0 -- -- 94
2019-10-12 00:00:00 17.9 30 Oeste 46 Oeste 0 -- -- 94
2019-10-11 23:00:00 18 30 Oeste 40 Sudoeste 0 -- -- 94
2019-10-11 22:00:00 18 27 Oeste 36 Sudoeste 0 -- -- 94
2019-10-11 21:00:00 18.4 22 Sudoeste 28 Sudoeste 0 -- -- 91
2019-10-11 20:00:00 19.7 13 Oeste 23 Este 0 -- -- 85
2019-10-11 19:00:00 22 16 Este 25 Este 0 -- -- 65
2019-10-11 18:00:00 24.1 14 Sudeste 21 Sudeste 0 -- -- 54
2019-10-11 17:00:00 25.2 13 Sudeste 19 Sudeste 0 -- -- 51
2019-10-11 16:00:00 27.3 5 Este 19 Sur 0 -- -- 46
2019-10-11 15:00:00 27.5 10 Sur 30 Sur 0 -- -- 42
2019-10-11 14:00:00 26 21 Sur 41 Sur 0 -- -- 44
2019-10-11 13:00:00 24.9 29 Sur 44 Sudoeste 0 -- -- 44
2019-10-11 12:00:00 24.1 32 Sudoeste 50 Sur 0 -- -- 40
2019-10-11 11:00:00 23.7 35 Sudoeste 52 Sudoeste 0 -- -- 40
2019-10-11 10:00:00 22.8 36 Sudoeste 59 Sudoeste 0 -- -- 42
2019-10-11 09:00:00 20.5 19 Sur 41 Sur 0 -- -- 51
2019-10-11 08:00:00 16.4 5 Este 11 Este 0 -- -- 67
2019-10-11 07:00:00 14.6 5 Sudeste 12 Sudeste 0 -- -- 81
2019-10-11 06:00:00 14.7 9 Sudeste 16 Sudeste 0 -- -- 81
2019-10-11 05:00:00 15 6 Sudeste 20 Sudeste 0 -- -- 83
2019-10-11 04:00:00 15.6 13 Sudeste 23 Sudeste 0 -- -- 84
2019-10-11 03:00:00 15.8 14 Sudeste 25 Este 0 -- -- 85
2019-10-11 02:00:00 16 15 Sudeste 29 Sudeste 0 -- -- 85
2019-10-11 01:00:00 16.3 17 Sudeste 30 Sudeste 0 -- -- 83
2019-10-11 00:00:00 16.2 15 Sudeste 28 Sudeste 0 -- -- 81
2019-10-10 23:00:00 16.2 17 Sudeste 29 Sudeste 0 -- -- 82
2019-10-10 22:00:00 16.3 15 Sudeste 29 Sudeste 0 -- -- 81
2019-10-10 21:00:00 16.4 15 Sudeste 28 Sudeste 0 -- -- 78
2019-10-10 20:00:00 16.8 21 Este 32 Este 0 -- -- 77
2019-10-10 19:00:00 16.9 23 Este 30 Este 0 -- -- 77
2019-10-10 18:00:00 17.7 19 Este 26 Este 0 -- -- 75
2019-10-10 17:00:00 18.4 13 Este 17 Este 0 -- -- 71
2019-10-10 16:00:00 18.8 9 Este 13 Nordeste 0 -- -- 68
2019-10-10 15:00:00 19.1 8 Nordeste 11 Norte 0 -- -- 65
2019-10-10 14:00:00 19.1 7 Nordeste 10 Nordeste 0 -- -- 66
2019-10-10 13:00:00 19.2 6 Nordeste 10 Nordeste 0 -- -- 65
2019-10-10 12:00:00 18.5 4 Oeste 20 Oeste 0 -- -- 68
2019-10-10 11:00:00 17.2 12 Oeste 23 Oeste 0 -- -- 71
2019-10-10 10:00:00 16.4 9 Oeste 20 Oeste 0 -- -- 73
2019-10-10 09:00:00 16.2 9 Sudoeste 22 Oeste 0 -- -- 75
2019-10-10 08:00:00 15 14 Oeste 23 Sudoeste 0 -- -- 78
2019-10-10 07:00:00 15 11 Oeste 24 Sudoeste 0 -- -- 79
2019-10-10 06:00:00 15.1 12 Sudoeste 26 Sudoeste 0 -- -- 79
2019-10-10 05:00:00 15.2 14 Sudoeste 26 Sudoeste 0 -- -- 79
2019-10-10 04:00:00 15.2 13 Oeste 27 Sudoeste 0 -- -- 80
2019-10-10 03:00:00 15.5 14 Oeste 29 Oeste 0 -- -- 79
2019-10-10 02:00:00 15.9 15 Oeste 27 Oeste 0 -- -- 77
2019-10-10 01:00:00 15.9 15 Sudoeste 32 Sudoeste 0 -- -- 78
2019-10-10 00:00:00 15.7 15 Sudoeste 31 Oeste 0 -- -- 80
2019-10-09 23:00:00 15.6 14 Sudoeste 36 Oeste 0 -- -- 80
2019-10-09 22:00:00 16.2 14 Sudoeste 39 Oeste 0 -- -- 76
2019-10-09 21:00:00 16.9 23 Oeste 36 Oeste 0 -- -- 76
2019-10-09 20:00:00 17.1 32 Oeste 45 Oeste 0 -- -- 76
2019-10-09 19:00:00 17.2 38 Oeste 56 Oeste 0 -- -- 76
2019-10-09 18:00:00 17.5 41 Oeste 51 Oeste 0 -- -- 73
2019-10-09 17:00:00 17.7 46 Oeste 58 Oeste 0 -- -- 67
2019-10-09 16:00:00 17.8 42 Oeste 55 Oeste 0 -- -- 71
2019-10-09 15:00:00 17.5 39 Oeste 57 Oeste 0 -- -- 69
2019-10-09 14:00:00 15.6 34 Oeste 63 Oeste 0.2 -- -- 83
2019-10-09 13:00:00 16.4 29 Oeste 44 Oeste 0 -- -- 84
2019-10-09 12:00:00 15.6 30 Oeste 55 Oeste 0 -- -- 89
2019-10-09 11:00:00 15.5 46 Oeste 65 Oeste 0.2 -- -- 93
2019-10-09 10:00:00 16.1 22 Oeste 44 Sudoeste 0 -- -- 83
2019-10-09 09:00:00 15 21 Oeste 39 Sudoeste 0 -- -- 87
2019-10-09 08:00:00 14.4 20 Oeste 38 Oeste 0 -- -- 92
2019-10-09 07:00:00 14.8 30 Oeste 51 Oeste 2.2 -- -- 100
2019-10-09 06:00:00 15 30 Oeste 54 Oeste 0 -- -- 92
2019-10-09 05:00:00 14.2 17 Oeste 36 Oeste 0.4 -- -- 95
2019-10-09 04:00:00 15.2 19 Oeste 31 Oeste 0 -- -- 90
2019-10-09 03:00:00 14.6 15 Oeste 38 Oeste 0 -- -- 89
2019-10-09 02:00:00 14.9 19 Oeste 35 Oeste 0.2 -- -- 94
2019-10-09 01:00:00 15.3 30 Oeste 39 Oeste 0 -- -- 94
2019-10-09 00:00:00 15.5 22 Sudoeste 37 Noroeste 0 -- -- 92
2019-10-08 23:00:00 15.8 15 Oeste 35 Oeste 0.2 -- -- 97
2019-10-08 22:00:00 15.8 27 Oeste 47 Oeste 0.4 -- -- 97
2019-10-08 21:00:00 16.9 33 Oeste 48 Oeste 0.2 -- -- 88
2019-10-08 20:00:00 17.1 33 Noroeste 50 Noroeste 0 -- -- 96
2019-10-08 19:00:00 18.1 37 Noroeste 60 Oeste 0 -- -- 96
2019-10-08 18:00:00 19.5 48 Oeste 59 Oeste 0 -- -- 93
2019-10-08 17:00:00 22.2 20 Oeste 27 Oeste 0 -- -- 69
2019-10-08 16:00:00 22.6 13 Oeste 18 Oeste 0 -- -- 70
2019-10-08 15:00:00 23.1 8 Oeste 19 Sudoeste 0 -- -- 70
2019-10-08 14:00:00 22.1 13 Oeste 26 Oeste 0 -- -- 66
2019-10-08 13:00:00 21 13 Oeste 20 Oeste 0 -- -- 63
2019-10-08 12:00:00 22.2 11 Sudoeste 16 Oeste 0 -- -- 48
2019-10-08 11:00:00 21.1 5 Sudoeste 9 Sudoeste 0 -- -- 46
2019-10-08 10:00:00 21.6 0 Calma 4 Sudoeste 0 -- -- 37
2019-10-08 09:00:00 18.9 0 Calma 5 Sudeste 0 -- -- 50
2019-10-08 08:00:00 17.2 4 Sudoeste 6 Sudoeste 0 -- -- 48
2019-10-08 07:00:00 16.8 0 Calma 7 Sudoeste 0 -- -- 54
2019-10-08 06:00:00 17.2 0 Calma 8 Sur 0 -- -- 52
2019-10-08 05:00:00 17.4 4 Oeste 6 Sudoeste 0 -- -- 57
2019-10-08 04:00:00 16.5 2 Sudoeste 6 Sur 0 -- -- 63
2019-10-08 03:00:00 17.6 0 Calma 5 Sudoeste 0 -- -- 60
2019-10-08 02:00:00 16 4 Sudeste 10 Oeste 0 -- -- 69
2019-10-08 01:00:00 17.2 6 Oeste 11 Oeste 0 -- -- 67
2019-10-08 00:00:00 16.4 6 Sudoeste 12 Sudoeste 0 -- -- 72
2019-10-07 23:00:00 15.5 3 Sudoeste 5 Oeste 0 -- -- 69
2019-10-07 22:00:00 16.1 2 Sudeste 9 Sur 0 -- -- 69
2019-10-07 21:00:00 16.4 8 Sudeste 10 Sur 0 -- -- 80
2019-10-07 20:00:00 16.8 7 Sudeste 11 Sudeste 0 -- -- 84
2019-10-07 19:00:00 17.8 5 Sudeste 11 Sudeste 0 -- -- 77
2019-10-07 18:00:00 19.8 6 Sudeste 20 Este 0 -- -- 71
2019-10-07 17:00:00 19.3 13 Este 24 Este 0 -- -- 71
2019-10-07 16:00:00 19.2 19 Este 24 Este 0 -- -- 73
2019-10-07 15:00:00 19.5 17 Este 27 Este 0 -- -- 73
2019-10-07 14:00:00 19.3 21 Este 27 Este 0 -- -- 73
2019-10-07 13:00:00 19.1 17 Este 22 Este 0 -- -- 71
2019-10-07 12:00:00 18.9 13 Este 18 Este 0 -- -- 67
2019-10-07 11:00:00 19.2 9 Este 16 Este 0 -- -- 66
2019-10-07 10:00:00 17.4 7 Sudeste 13 Sudeste 0 -- -- 73
2019-10-07 09:00:00 15.6 9 Sudeste 13 Sudeste 0 -- -- 75
2019-10-07 08:00:00 14.6 5 Este 7 Este 0 -- -- 80
2019-10-07 07:00:00 14.3 4 Sudoeste 8 Sudoeste 0 -- -- 82
2019-10-07 06:00:00 14.2 0 Calma 8 Oeste 0 -- -- 84
2019-10-07 05:00:00 13.8 4 Sudoeste 11 Oeste 0 -- -- 87
2019-10-07 04:00:00 15 7 Sudoeste 17 Sudoeste 0 -- -- 82
2019-10-07 03:00:00 15.4 10 Sudoeste 18 Sudoeste 0 -- -- 80
2019-10-07 02:00:00 15.1 9 Sudoeste 12 Oeste 0 -- -- 82
2019-10-07 01:00:00 15.2 8 Oeste 16 Oeste 0 -- -- 81
2019-10-07 00:00:00 16 8 Oeste 19 Noroeste 0 -- -- 78
2019-10-06 23:00:00 16.8 14 Noroeste 27 Oeste 0 -- -- 71
2019-10-06 22:00:00 17.1 19 Noroeste 31 Oeste 0 -- -- 75
2019-10-06 21:00:00 17.3 23 Oeste 33 Oeste 0 -- -- 74
2019-10-06 20:00:00 17.4 27 Oeste 37 Oeste 0 -- -- 73
2019-10-06 19:00:00 17.6 26 Oeste 38 Oeste 0 -- -- 80
2019-10-06 18:00:00 17.7 29 Oeste 41 Oeste 0 -- -- 81
2019-10-06 17:00:00 17.7 29 Noroeste 37 Oeste 0.2 -- -- 86
2019-10-06 16:00:00 16.6 19 Oeste 49 Oeste 1.4 -- -- 94
2019-10-06 15:00:00 17 35 Oeste 49 Oeste 0.6 -- -- 92
2019-10-06 14:00:00 17.9 25 Oeste 42 Oeste 0 -- -- 89
2019-10-06 13:00:00 16.9 28 Oeste 63 Oeste 0.4 -- -- 92
2019-10-06 12:00:00 17.6 22 Oeste 34 Sudoeste 0 -- -- 85
2019-10-06 11:00:00 16.6 14 Oeste 49 Oeste 0 -- -- 90
2019-10-06 10:00:00 17.4 17 Oeste 40 Oeste 0 -- -- 82
2019-10-06 09:00:00 17 16 Oeste 37 Oeste 0 -- -- 81
2019-10-06 08:00:00 16.7 17 Oeste 34 Oeste 0 -- -- 86
2019-10-06 07:00:00 17 19 Oeste 32 Sudoeste 0 -- -- 82
2019-10-06 06:00:00 16.9 12 Oeste 19 Oeste 0 -- -- 77
2019-10-06 05:00:00 16.8 5 Oeste 18 Sudoeste 0 -- -- 75
2019-10-06 04:00:00 16.7 11 Oeste 23 Sudoeste 0 -- -- 74
2019-10-06 03:00:00 16.3 11 Oeste 21 Oeste 0 -- -- 77
2019-10-06 02:00:00 16.2 10 Oeste 19 Sudoeste 0 -- -- 78
2019-10-06 01:00:00 16.1 9 Sudoeste 17 Oeste 0 -- -- 84
2019-10-06 00:00:00 16.3 8 Oeste 16 Oeste 0 -- -- 86
2019-10-05 23:00:00 15.8 4 Sur 6 Oeste 0 -- -- 86
2019-10-05 22:00:00 16.8 2 Oeste 5 Oeste 0 -- -- 82
2019-10-05 21:00:00 16.8 0 Calma 7 Noroeste 0 -- -- 83
2019-10-05 20:00:00 17 3 Noroeste 7 Nordeste 0 -- -- 82
2019-10-05 19:00:00 18 3 Norte 9 Nordeste 0 -- -- 76
2019-10-05 18:00:00 19.1 4 Nordeste 8 Nordeste 0 -- -- 75
2019-10-05 17:00:00 18.9 6 Nordeste 9 Nordeste 0 -- -- 76
2019-10-05 16:00:00 18.5 7 Nordeste 13 Nordeste 0 -- -- 78
2019-10-05 15:00:00 18.8 5 Norte 9 Nordeste 0 -- -- 79
2019-10-05 14:00:00 19.1 5 Nordeste 8 Nordeste 0 -- -- 77
2019-10-05 13:00:00 18.6 3 Norte 8 Este 0 -- -- 79
2019-10-05 12:00:00 18.3 7 Nordeste 10 Este 0 -- -- 80
2019-10-05 11:00:00 17.5 4 Sudeste 6 Sudeste 0 -- -- 84
2019-10-05 10:00:00 16 5 Sur 6 Sur 0 -- -- 89
2019-10-05 09:00:00 14.5 3 Sudeste 5 Sudeste 0 -- -- 91
2019-10-05 08:00:00 14.5 0 Calma 14 Oeste 0 -- -- 90
2019-10-05 07:00:00 15.3 7 Sudoeste 17 Oeste 0 -- -- 89
2019-10-05 06:00:00 15.4 10 Oeste 20 Oeste 0 -- -- 91
2019-10-05 05:00:00 15.4 11 Oeste 18 Sudoeste 0 -- -- 92
2019-10-05 04:00:00 15.5 12 Oeste 22 Oeste 0 -- -- 93
2019-10-05 03:00:00 15.6 9 Oeste 16 Oeste 0 -- -- 94
2019-10-05 02:00:00 15.4 3 Oeste 13 Sudoeste 0 -- -- 96
2019-10-05 01:00:00 15.8 4 Oeste 19 Oeste 0.4 -- -- 98
2019-10-05 00:00:00 16.1 14 Oeste 22 Oeste 3.2 -- -- 97
2019-10-04 23:00:00 16.5 9 Oeste 26 Oeste 0.8 -- -- 94
2019-10-04 22:00:00 16.6 16 Oeste 26 Sudoeste 0 -- -- 92
2019-10-04 21:00:00 16.3 14 Oeste 20 Sudoeste 0 -- -- 92
2019-10-04 20:00:00 16.6 12 Oeste 19 Sudoeste 0 -- -- 92
2019-10-04 19:00:00 16.9 13 Oeste 24 Oeste 0 -- -- 92
2019-10-04 18:00:00 17.1 15 Oeste 21 Oeste 0 -- -- 90
2019-10-04 17:00:00 16.6 14 Oeste 21 Oeste 0 -- -- 96
2019-10-04 16:00:00 16.3 12 Oeste 17 Oeste 0.2 -- -- 99
2019-10-04 15:00:00 16.3 15 Oeste 24 Sudoeste 0.8 -- -- 98
2019-10-04 14:00:00 16.9 17 Oeste 27 Sudoeste 0 -- -- 96
2019-10-04 13:00:00 16.3 14 Oeste 36 Oeste 0.4 -- -- 98
2019-10-04 12:00:00 17.4 19 Oeste 37 Oeste 0 -- -- 96
2019-10-04 11:00:00 17 19 Oeste 50 Oeste 1.2 -- -- 99
2019-10-04 10:00:00 16.9 28 Oeste 43 Oeste 2.4 -- -- 99
2019-10-04 09:00:00 16.8 22 Oeste 33 Oeste 1 -- -- 98
2019-10-04 08:00:00 16.5 18 Oeste 37 Oeste 0.2 -- -- 95
2019-10-04 07:00:00 18.2 22 Oeste 32 Oeste 0 -- -- 87
2019-10-04 06:00:00 19 17 Oeste 25 Oeste 0 -- -- 80
2019-10-04 05:00:00 18.8 6 Oeste 13 Oeste 0 -- -- 80
2019-10-04 04:00:00 18.2 5 Oeste 16 Oeste 0 -- -- 81
2019-10-04 03:00:00 19.1 5 Noroeste 14 Noroeste 0 -- -- 81
2019-10-04 02:00:00 18.8 10 Oeste 26 Oeste 0 -- -- 77
2019-10-04 01:00:00 18 0 Calma 13 Oeste 0 -- -- 74
2019-10-04 00:00:00 17.3 0 Calma 11 Oeste 0 -- -- 73
2019-10-03 23:00:00 18.5 6 Noroeste 17 Oeste 0 -- -- 64
2019-10-03 22:00:00 17.6 8 Oeste 17 Oeste 0 -- -- 66
2019-10-03 21:00:00 15.5 4 Oeste 10 Oeste 0 -- -- 76
2019-10-03 20:00:00 15.9 5 Oeste 10 Oeste 0 -- -- 75
2019-10-03 19:00:00 17.7 2 Sudeste 6 Sudeste 0 -- -- 72
2019-10-03 18:00:00 20.1 3 Sudeste 10 Este 0 -- -- 65
2019-10-03 17:00:00 19.5 8 Este 12 Este 0 -- -- 64
2019-10-03 16:00:00 19.8 8 Este 12 Este 0 -- -- 63
2019-10-03 15:00:00 19.9 6 Nordeste 9 Nordeste 0 -- -- 64
2019-10-03 14:00:00 19.8 8 Nordeste 12 Nordeste 0 -- -- 65
2019-10-03 13:00:00 19.8 4 Nordeste 8 Este 0 -- -- 60
2019-10-03 12:00:00 19.6 3 Sudoeste 12 Este 0 -- -- 67
2019-10-03 11:00:00 18.9 8 Este 12 Este 0 -- -- 69
2019-10-03 10:00:00 17.4 3 Este 14 Sur 0 -- -- 74
2019-10-03 09:00:00 15.4 5 Sudoeste 11 Sur 0 -- -- 75
2019-10-03 08:00:00 14.3 2 Sur 5 Sudeste 0 -- -- 82
2019-10-03 07:00:00 13.7 3 Sudeste 9 Sudeste 0 -- -- 84
2019-10-03 06:00:00 14.1 5 Sudoeste 6 Sudoeste 0 -- -- 84
2019-10-03 05:00:00 14.4 4 Sudoeste 9 Sur 0 -- -- 85
2019-10-03 04:00:00 15.7 5 Sudoeste 13 Sudoeste 0 -- -- 85
2019-10-03 03:00:00 15.7 9 Oeste 16 Sudoeste 0 -- -- 84
2019-10-03 02:00:00 16.1 7 Oeste 16 Oeste 0 -- -- 84
2019-10-03 01:00:00 15.9 3 Sudoeste 12 Oeste 0 -- -- 86
2019-10-03 00:00:00 16.6 6 Oeste 19 Oeste 0 -- -- 81
2019-10-02 23:00:00 16.4 11 Oeste 24 Oeste 0 -- -- 83
2019-10-02 22:00:00 17 20 Oeste 30 Oeste 0 -- -- 86
2019-10-02 21:00:00 16.7 19 Oeste 42 Oeste 0 -- -- 88
2019-10-02 20:00:00 16.6 18 Oeste 32 Oeste 0 -- -- 87
2019-10-02 19:00:00 17.4 24 Oeste 39 Oeste 0 -- -- 77
2019-10-02 18:00:00 17.3 26 Oeste 36 Oeste 0 -- -- 81
2019-10-02 17:00:00 17.2 31 Noroeste 42 Noroeste 0 -- -- 82
2019-10-02 16:00:00 17.2 29 Noroeste 63 Oeste 0.4 -- -- 85
2019-10-02 15:00:00 16.5 46 Oeste 75 Oeste 0.4 -- -- 93
2019-10-02 14:00:00 16.6 41 Oeste 72 Oeste 2.8 -- -- 94
2019-10-02 13:00:00 16.1 49 Oeste 69 Oeste 10 -- -- 98
2019-10-02 12:00:00 16.4 30 Oeste 56 Oeste 0 -- -- 90
2019-10-02 11:00:00 15.9 46 Oeste 62 Oeste 0.2 -- -- 93
2019-10-02 10:00:00 15.9 39 Oeste 62 Oeste 2.8 -- -- 96
2019-10-02 09:00:00 15.2 39 Oeste 69 Oeste 8.4 -- -- 98
2019-10-02 08:00:00 16.8 58 Oeste 87 Oeste 0 -- -- 89
2019-10-02 07:00:00 16.4 61 Oeste 108 Oeste 0.2 -- -- 88
2019-10-02 06:00:00 16.2 83 Oeste 105 Oeste 0 -- -- 91
2019-10-02 05:00:00 15.7 76 Oeste 103 Oeste 1.8 -- -- 95
2019-10-02 04:00:00 18.1 69 Oeste 111 Oeste 0 -- -- 78
2019-10-02 03:00:00 17.7 73 Oeste 102 Oeste 0 -- -- 84
2019-10-02 02:00:00 18.5 64 Oeste 82 Oeste 0 -- -- 76
2019-10-02 01:00:00 18.8 57 Oeste 84 Oeste 0 -- -- 74
2019-10-02 00:00:00 19 53 Oeste 83 Oeste 0 -- -- 74
2019-10-01 23:00:00 18.9 64 Oeste 82 Oeste 0 -- -- 75
2019-10-01 22:00:00 18.7 55 Oeste 71 Oeste 0 -- -- 81
2019-10-01 21:00:00 19 55 Oeste 69 Oeste 0 -- -- 80
2019-10-01 20:00:00 19.1 57 Oeste 72 Oeste 0 -- -- 81
2019-10-01 19:00:00 19.5 57 Oeste 70 Oeste 0 -- -- 77
2019-10-01 18:00:00 19.5 42 Oeste 57 Oeste 0 -- -- 77
2019-10-01 17:00:00 19.4 46 Oeste 59 Oeste 0 -- -- 82
2019-10-01 16:00:00 19.8 36 Oeste 49 Oeste 0 -- -- 84
2019-10-01 15:00:00 20.3 32 Oeste 42 Oeste 0 -- -- 81
2019-10-01 14:00:00 20.7 36 Oeste 50 Oeste 0 -- -- 80
2019-10-01 13:00:00 20 29 Oeste 42 Oeste 0 -- -- 89
2019-10-01 12:00:00 20.7 28 Oeste 42 Oeste 0 -- -- 83
2019-10-01 11:00:00 20.5 27 Oeste 37 Oeste 0 -- -- 82
2019-10-01 10:00:00 19.5 21 Oeste 38 Oeste 0 -- -- 88
2019-10-01 09:00:00 18.9 23 Oeste 35 Oeste 0 -- -- 94
2019-10-01 08:00:00 18.7 22 Oeste 35 Oeste 0 -- -- 95
2019-10-01 07:00:00 18.9 23 Oeste 36 Oeste 0 -- -- 94
2019-10-01 06:00:00 18.3 6 Oeste 16 Oeste 0 -- -- 85
2019-10-01 05:00:00 18.3 9 Este 14 Este 0 -- -- 87
2019-10-01 04:00:00 18.6 7 Sur 17 Este 0 -- -- 83
2019-10-01 03:00:00 18.7 10 Sudeste 15 Sudeste 0 -- -- 97
2019-10-01 02:00:00 19.6 0 Calma 9 Este 0 -- -- 97
2019-10-01 01:00:00 19.2 7 Este 13 Este 0 -- -- 96
2019-10-01 00:00:00 19.6 9 Este 14 Sudeste 0 -- -- 95
2019-09-30 23:00:00 19.8 10 Este 18 Este 0 -- -- 91
2019-09-30 22:00:00 20.8 13 Este 22 Sudeste 0 -- -- 75
2019-09-30 21:00:00 19.6 12 Sudeste 19 Sudeste 0 -- -- 88
2019-09-30 20:00:00 20 13 Sudeste 21 Sudeste 0 -- -- 88
2019-09-30 19:00:00 20.4 14 Sudeste 22 Sudeste 0 -- -- 85
2019-09-30 18:00:00 21.6 13 Sudeste 21 Sudeste 0 -- -- 80
2019-09-30 17:00:00 22.7 10 Sudeste 18 Sudeste 0 -- -- 76
2019-09-30 16:00:00 22.8 14 Sudeste 21 Sudeste 0 -- -- 73
2019-09-30 15:00:00 22.6 16 Este 26 Este 0 -- -- 74
2019-09-30 14:00:00 22.5 18 Este 26 Este 0 -- -- 72
2019-09-30 13:00:00 22.6 16 Este 24 Este 0 -- -- 71
2019-09-30 12:00:00 22.2 14 Este 22 Este 0 -- -- 75
2019-09-30 11:00:00 22 13 Este 17 Este 0 -- -- 76
2019-09-30 10:00:00 21.1 8 Este 16 Sudeste 0 -- -- 78
2019-09-30 09:00:00 18.9 6 Sudeste 13 Sudeste 0 -- -- 91
2019-09-30 08:00:00 18.4 7 Sudeste 14 Sudeste 0 -- -- 91
2019-09-30 07:00:00 18.5 7 Sudeste 14 Sudeste 0 -- -- 90
2019-09-30 06:00:00 18.6 5 Sudeste 6 Sudeste 0 -- -- 90
2019-09-30 05:00:00 18.5 5 Sudeste 12 Sudeste 0 -- -- 91
2019-09-30 04:00:00 18.5 0 Calma 8 Sur 0 -- -- 92
2019-09-30 03:00:00 18.6 5 Sur 20 Oeste 0 -- -- 91
2019-09-30 02:00:00 18.8 10 Oeste 22 Sudoeste 0 -- -- 91
2019-09-30 01:00:00 18.7 14 Oeste 24 Sudoeste 0 -- -- 92
2019-09-30 00:00:00 19.4 10 Oeste 27 Oeste 0 -- -- 92
2019-09-29 23:00:00 19.6 23 Oeste 36 Oeste 0 -- -- 91
2019-09-29 22:00:00 20 21 Oeste 30 Noroeste 0 -- -- 91
2019-09-29 21:00:00 20.8 15 Oeste 20 Oeste 0 -- -- 77
2019-09-29 20:00:00 20.6 6 Oeste 15 Oeste 0 -- -- 70
2019-09-29 19:00:00 22.4 10 Oeste 16 Oeste 0 -- -- 63
2019-09-29 18:00:00 24.2 3 Sudeste 8 Noroeste 0 -- -- 57
2019-09-29 17:00:00 23.8 4 Noroeste 13 Noroeste 0 -- -- 56
2019-09-29 16:00:00 25.3 2 Norte 11 Sudoeste 0 -- -- 60
2019-09-29 15:00:00 24.8 8 Oeste 12 Sudoeste 0 -- -- 41
2019-09-29 14:00:00 24.1 11 Sudoeste 17 Oeste 0 -- -- 57
2019-09-29 13:00:00 24.1 5 Noroeste 9 Oeste 0 -- -- 44
2019-09-29 12:00:00 23.3 4 Oeste 11 Este 0 -- -- 56
2019-09-29 11:00:00 20.8 3 Norte 9 Noroeste 0 -- -- 77
2019-09-29 10:00:00 20 3 Este 12 Sudoeste 0 -- -- 79
2019-09-29 09:00:00 17.8 4 Oeste 12 Sudoeste 0 -- -- 90
2019-09-29 08:00:00 17.1 12 Sudoeste 23 Oeste 0 -- -- 95
2019-09-29 07:00:00 16.5 16 Sudoeste 19 Sudoeste 0 -- -- 90
2019-09-29 06:00:00 16.8 4 Sudeste 10 Sudoeste 0 -- -- 73
2019-09-29 05:00:00 16.3 3 Sudeste 9 Sudeste 0 -- -- 93
2019-09-29 04:00:00 16.7 8 Sudoeste 10 Sudoeste 0 -- -- 92
2019-09-29 03:00:00 16.7 8 Sur 12 Sudeste 0 -- -- 92
2019-09-29 02:00:00 16.4 6 Sudeste 10 Sudeste 0 -- -- 93
2019-09-29 01:00:00 16.7 6 Oeste 10 Sudeste 0 -- -- 91
2019-09-29 00:00:00 17.2 7 Sudeste 13 Sudeste 0 -- -- 88
2019-09-28 23:00:00 17.5 5 Sudeste 16 Este 0 -- -- 87
2019-09-28 22:00:00 17.3 6 Sudeste 18 Este 0 -- -- 86
2019-09-28 21:00:00 17.8 12 Sudeste 23 Sudeste 0 -- -- 85
2019-09-28 20:00:00 18.1 14 Sudeste 28 Este 0 -- -- 84
2019-09-28 19:00:00 18.5 20 Este 35 Este 0 -- -- 81
2019-09-28 18:00:00 19.1 26 Este 36 Este 0 -- -- 82
2019-09-28 17:00:00 19.5 23 Este 33 Este 0 -- -- 79
2019-09-28 16:00:00 19.8 22 Este 29 Este 0 -- -- 77
2019-09-28 15:00:00 20.1 18 Este 22 Este 0 -- -- 75
2019-09-28 14:00:00 20.1 17 Este 21 Este 0 -- -- 75
2019-09-28 13:00:00 20.1 15 Este 18 Nordeste 0 -- -- 73
2019-09-28 12:00:00 19.1 11 Este 16 Este 0 -- -- 77
2019-09-28 11:00:00 19.6 7 Este 10 Nordeste 0 -- -- 76
2019-09-28 10:00:00 18.5 4 Nordeste 8 Este 0 -- -- 81
2019-09-28 09:00:00 16.6 0 Calma 5 Sudeste 0 -- -- 84
2019-09-28 08:00:00 16.4 3 Sudeste 5 Sudeste 0 -- -- 86
2019-09-28 07:00:00 16.5 3 Noroeste 17 Sudoeste 0 -- -- 83
2019-09-28 06:00:00 16.1 9 Sudoeste 27 Sudoeste 0 -- -- 91
2019-09-28 05:00:00 16.5 15 Oeste 29 Oeste 0 -- -- 89
2019-09-28 04:00:00 16.6 17 Oeste 36 Oeste 0 -- -- 87
2019-09-28 03:00:00 16.5 23 Noroeste 32 Oeste 0 -- -- 94
2019-09-28 02:00:00 17.1 12 Oeste 24 Oeste 0 -- -- 83
2019-09-28 01:00:00 16.9 13 Oeste 41 Oeste 0 -- -- 85
2019-09-28 00:00:00 17.2 31 Oeste 43 Oeste 0 -- -- 84
2019-09-27 23:00:00 17 22 Oeste 39 Oeste 0.2 -- -- 89
2019-09-27 22:00:00 17.4 27 Oeste 39 Oeste 0 -- -- 88
2019-09-27 21:00:00 16.5 26 Oeste 47 Oeste 0 -- -- 95
2019-09-27 20:00:00 17.8 35 Oeste 49 Noroeste 0 -- -- 86
2019-09-27 19:00:00 19.2 24 Oeste 33 Oeste 0 -- -- 82
2019-09-27 18:00:00 20 20 Oeste 24 Oeste 0 -- -- 80
2019-09-27 17:00:00 20.2 11 Oeste 17 Noroeste 0 -- -- 81
2019-09-27 16:00:00 20.6 10 Oeste 17 Oeste 0 -- -- 81
2019-09-27 15:00:00 20.1 14 Oeste 21 Oeste 0 -- -- 85
2019-09-27 14:00:00 19.8 17 Oeste 29 Oeste 0 -- -- 84
2019-09-27 13:00:00 19.3 20 Oeste 39 Oeste 0 -- -- 85
2019-09-27 12:00:00 18.9 34 Oeste 56 Oeste 0 -- -- 88
2019-09-27 11:00:00 21.4 21 Oeste 34 Oeste 0 -- -- 61
2019-09-27 10:00:00 21.6 3 Noroeste 9 Oeste 0 -- -- 65
2019-09-27 09:00:00 19.3 4 Sudoeste 11 Sudoeste 0 -- -- 74
2019-09-27 08:00:00 16.8 3 Sudoeste 9 Oeste 0 -- -- 81
2019-09-27 07:00:00 16.4 0 Calma 5 Oeste 0 -- -- 84
2019-09-27 06:00:00 16.5 0 Calma 3 Sur 0 -- -- 84
2019-09-27 05:00:00 16.1 0 Calma 4 Sudeste 0 -- -- 89
2019-09-27 04:00:00 16.1 0 Calma 6 Sudoeste 0 -- -- 88
2019-09-27 03:00:00 16.6 5 Sudoeste 13 Sur 0 -- -- 86
2019-09-27 02:00:00 17 8 Sudeste 13 Sudeste 0 -- -- 87
2019-09-27 01:00:00 17.7 3 Sur 5 Sudeste 0 -- -- 84
2019-09-27 00:00:00 17.9 3 Este 14 Sudeste 0 -- -- 83
2019-09-26 23:00:00 18 8 Sudeste 24 Sudeste 0 -- -- 82
2019-09-26 22:00:00 18.3 14 Este 28 Sudeste 0 -- -- 81
2019-09-26 21:00:00 18.5 9 Este 16 Este 0 -- -- 79
2019-09-26 20:00:00 18.7 3 Este 6 Este 0 -- -- 78
2019-09-26 19:00:00 19.3 2 Norte 8 Nordeste 0 -- -- 74
2019-09-26 18:00:00 20.3 4 Noroeste 13 Noroeste 0 -- -- 70
2019-09-26 17:00:00 21.1 4 Norte 10 Noroeste 0 -- -- 68
2019-09-26 16:00:00 20.8 5 Nordeste 9 Noroeste 0 -- -- 72
2019-09-26 15:00:00 21.6 4 Norte 11 Noroeste 0 -- -- 71
2019-09-26 14:00:00 20.9 7 Noroeste 9 Noroeste 0 -- -- 75
2019-09-26 13:00:00 19.7 6 Oeste 8 Oeste 0 -- -- 76
2019-09-26 12:00:00 20.1 3 Noroeste 10 Oeste 0 -- -- 74
2019-09-26 11:00:00 20.4 5 Oeste 11 Oeste 0 -- -- 73
2019-09-26 10:00:00 18.7 6 Oeste 9 Noroeste 0 -- -- 79
2019-09-26 09:00:00 17.6 0 Calma 6 Oeste 0 -- -- 84
2019-09-26 08:00:00 17.1 0 Calma 12 Noroeste 0 -- -- 83
2019-09-26 07:00:00 17.8 6 Sudoeste 15 Sudoeste 0 -- -- 80
2019-09-26 06:00:00 17.6 10 Sudoeste 15 Sudoeste 0 -- -- 81
2019-09-26 05:00:00 17.5 6 Sudoeste 16 Oeste 0 -- -- 81
2019-09-26 04:00:00 17.6 5 Sudoeste 18 Sudoeste 0 -- -- 82
2019-09-26 03:00:00 17.8 8 Sudoeste 20 Sudoeste 0 -- -- 82
2019-09-26 02:00:00 18 11 Oeste 23 Oeste 0 -- -- 81
2019-09-26 01:00:00 18 14 Oeste 22 Oeste 0 -- -- 81
2019-09-26 00:00:00 18.2 7 Sudoeste 14 Oeste 0 -- -- 82
2019-09-25 23:00:00 18.4 9 Oeste 16 Oeste 0 -- -- 82
2019-09-25 22:00:00 18.4 12 Oeste 24 Oeste 0 -- -- 82
2019-09-25 21:00:00 18.6 20 Oeste 28 Oeste 0 -- -- 81
2019-09-25 20:00:00 18.7 24 Oeste 38 Oeste 0 -- -- 80
2019-09-25 19:00:00 18.9 32 Oeste 39 Oeste 0 -- -- 77
2019-09-25 18:00:00 19 26 Oeste 40 Oeste 0 -- -- 75
2019-09-25 17:00:00 19.3 30 Oeste 52 Oeste 0 -- -- 72
2019-09-25 16:00:00 19.4 41 Oeste 57 Oeste 0 -- -- 68
2019-09-25 15:00:00 19.4 42 Oeste 54 Oeste 0 -- -- 72
2019-09-25 14:00:00 19.5 46 Oeste 54 Oeste 0 -- -- 69
2019-09-25 13:00:00 19.3 36 Oeste 53 Oeste 0 -- -- 67
2019-09-25 12:00:00 19.1 32 Oeste 49 Oeste 0 -- -- 66
2019-09-25 11:00:00 18.5 26 Oeste 48 Oeste 0 -- -- 69
2019-09-25 10:00:00 18.1 25 Oeste 45 Oeste 0 -- -- 70
2019-09-25 09:00:00 17.7 19 Oeste 39 Oeste 0 -- -- 71
2019-09-25 08:00:00 17.5 22 Oeste 41 Oeste 0 -- -- 72
2019-09-25 07:00:00 17.3 24 Oeste 47 Oeste 0 -- -- 75
2019-09-25 06:00:00 17.5 25 Oeste 42 Oeste 0 -- -- 76
2019-09-25 05:00:00 17.6 21 Oeste 39 Sudoeste 0 -- -- 76
2019-09-25 04:00:00 17.3 16 Oeste 35 Oeste 0 -- -- 78
2019-09-25 03:00:00 16.7 14 Oeste 36 Oeste 0.2 -- -- 85
2019-09-25 02:00:00 17.7 18 Oeste 35 Oeste 0 -- -- 78
2019-09-25 01:00:00 17.7 18 Oeste 36 Sudoeste 0 -- -- 78
2019-09-25 00:00:00 17.6 18 Oeste 36 Oeste 0 -- -- 79
2019-09-24 23:00:00 17.5 18 Oeste 33 Oeste 0 -- -- 82
2019-09-24 22:00:00 18.3 15 Oeste 33 Oeste 0 -- -- 79
2019-09-24 21:00:00 18.1 21 Oeste 36 Oeste 0 -- -- 80
2019-09-24 20:00:00 18.2 21 Oeste 44 Oeste 0 -- -- 86
2019-09-24 19:00:00 19 30 Oeste 38 Oeste 0 -- -- 81
2019-09-24 18:00:00 18.9 26 Oeste 39 Oeste 0 -- -- 79
2019-09-24 17:00:00 19 28 Oeste 48 Oeste 0 -- -- 80
2019-09-24 16:00:00 19.6 36 Oeste 61 Oeste 0 -- -- 77
2019-09-24 15:00:00 19.7 42 Oeste 59 Oeste 0 -- -- 74
2019-09-24 14:00:00 19.3 36 Oeste 60 Oeste 0 -- -- 79
2019-09-24 13:00:00 21.3 18 Oeste 27 Oeste 0 -- -- 83
2019-09-24 12:00:00 21.7 6 Oeste 12 Oeste 0 -- -- 75
2019-09-24 11:00:00 21.7 0 Calma 13 Oeste 0 -- -- 75
2019-09-24 10:00:00 19.7 7 Sudoeste 24 Oeste 0 -- -- 85
2019-09-24 09:00:00 19.6 15 Oeste 34 Oeste 0.2 -- -- 78
2019-09-24 08:00:00 21.1 26 Oeste 51 Sudoeste 0 -- -- 64
2019-09-24 07:00:00 23.8 27 Sudoeste 59 Sudoeste 0 -- -- 39
2019-09-24 06:00:00 24.2 35 Sudoeste 62 Sudoeste 0 -- -- 40
2019-09-24 05:00:00 24.2 33 Sudoeste 59 Sudoeste 0 -- -- 42
2019-09-24 04:00:00 23.5 22 Sur 42 Sur 0 -- -- 45
2019-09-24 03:00:00 23.2 21 Sur 42 Sudoeste 0 -- -- 45
2019-09-24 02:00:00 19.6 12 Sudeste 21 Sudeste 0 -- -- 65
2019-09-24 01:00:00 19.9 13 Sudeste 19 Sudeste 0 -- -- 69
2019-09-24 00:00:00 19.4 8 Sudeste 14 Sudeste 0 -- -- 69
2019-09-23 23:00:00 20 6 Sur 15 Sudeste 0 -- -- 64
2019-09-23 22:00:00 18.8 9 Sudeste 12 Sudeste 0.2 -- -- 80
2019-09-23 21:00:00 18.3 3 Sur 10 Sur 0 -- -- 77
2019-09-23 20:00:00 19.1 9 Sur 15 Sur 0.2 -- -- 72
2019-09-23 19:00:00 20.5 2 Sur 14 Sudeste 0 -- -- 71
2019-09-23 18:00:00 20.3 9 Sudeste 14 Sudeste 0 -- -- 80
2019-09-23 17:00:00 20.8 9 Sudeste 14 Sudeste 0 -- -- 75
2019-09-23 16:00:00 20.7 8 Sudeste 13 Sudeste 0 -- -- 73
2019-09-23 15:00:00 21.3 7 Este 13 Este 0 -- -- 69
2019-09-23 14:00:00 21.1 7 Nordeste 13 Este 0 -- -- 71
2019-09-23 13:00:00 21.2 6 Este 13 Este 0 -- -- 66
2019-09-23 12:00:00 19.6 6 Este 10 Este 0 -- -- 74
2019-09-23 11:00:00 18.4 4 Sudeste 9 Sur 0 -- -- 80
2019-09-23 10:00:00 18.5 3 Este 8 Sur 0 -- -- 73
2019-09-23 09:00:00 18.1 5 Sur 18 Sudeste 0 -- -- 64
2019-09-23 08:00:00 17.7 11 Sudeste 19 Sudeste 0 -- -- 65
2019-09-23 07:00:00 17.3 9 Sudeste 16 Sudeste 0 -- -- 73
2019-09-23 06:00:00 17 6 Sudeste 12 Sudeste 0 -- -- 76
2019-09-23 05:00:00 16.9 5 Sudeste 10 Sudeste 0 -- -- 77
2019-09-23 04:00:00 17 6 Sudeste 10 Sudeste 0 -- -- 77
2019-09-23 03:00:00 17.4 6 Sudeste 12 Sudeste 0 -- -- 76
2019-09-23 02:00:00 17.3 7 Sudeste 11 Sur 0 -- -- 77
2019-09-23 01:00:00 17.5 9 Sur 11 Sudeste 0 -- -- 76
2019-09-23 00:00:00 17.2 4 Sudeste 6 Sudeste 0 -- -- 79
2019-09-22 23:00:00 17.1 0 Calma 9 Sudoeste 0 -- -- 81
2019-09-22 22:00:00 17.3 6 Oeste 13 Oeste 0 -- -- 77
2019-09-22 21:00:00 18.1 10 Oeste 21 Oeste 0 -- -- 74
2019-09-22 20:00:00 19.2 17 Oeste 32 Oeste 0 -- -- 67
2019-09-22 19:00:00 19.6 25 Oeste 32 Oeste 0 -- -- 68
2019-09-22 18:00:00 20.3 21 Noroeste 28 Oeste 0 -- -- 65
2019-09-22 17:00:00 20.8 15 Oeste 24 Noroeste 0 -- -- 65
2019-09-22 16:00:00 20.9 19 Noroeste 25 Noroeste 0 -- -- 66
2019-09-22 15:00:00 21.4 13 Noroeste 19 Noroeste 0 -- -- 63
2019-09-22 14:00:00 20.7 11 Oeste 18 Oeste 0 -- -- 68
2019-09-22 13:00:00 20.9 5 Oeste 12 Sudoeste 0 -- -- 69
2019-09-22 12:00:00 20.4 0 Calma 11 Oeste 0 -- -- 76
2019-09-22 11:00:00 19.3 3 Noroeste 9 Oeste 0 -- -- 77
2019-09-22 10:00:00 18.8 0 Calma 6 Sur 0 -- -- 76
2019-09-22 09:00:00 15.4 0 Calma 9 Sudeste 0 -- -- 90
2019-09-22 08:00:00 15.3 2 Sudoeste 18 Sudoeste 0 -- -- 95
2019-09-22 07:00:00 15.7 15 Oeste 32 Oeste 1.8 -- -- 97
2019-09-22 06:00:00 15.9 18 Oeste 39 Noroeste 4 -- -- 96
2019-09-22 05:00:00 16.5 33 Noroeste 51 Oeste 3 -- -- 95
2019-09-22 04:00:00 18.4 44 Oeste 57 Oeste 0 -- -- 82
2019-09-22 03:00:00 18.2 49 Oeste 60 Oeste 0 -- -- 85
2019-09-22 02:00:00 18.8 45 Oeste 66 Oeste 0.4 -- -- 90
2019-09-22 01:00:00 24.2 13 Sudoeste 48 Sudoeste 0 -- -- 55
2019-09-22 00:00:00 24.4 13 Sudoeste 48 Sudoeste 0 -- -- 54
2019-09-21 23:00:00 24.5 15 Sudoeste 48 Sudoeste 0 -- -- 52
2019-09-21 22:00:00 24.2 15 Sur 41 Sudoeste 0 -- -- 53
2019-09-21 21:00:00 24.5 17 Sur 37 Sur 0 -- -- 52
2019-09-21 20:00:00 25.1 14 Sur 36 Sur 0 -- -- 50
2019-09-21 19:00:00 25.9 6 Sur 23 Sur 0 -- -- 49
2019-09-21 18:00:00 26 10 Sur 25 Sur 0 -- -- 50
2019-09-21 17:00:00 25.6 13 Sur 36 Sudoeste 0 -- -- 51
2019-09-21 16:00:00 25.8 5 Sur 15 Sur 0 -- -- 52
2019-09-21 15:00:00 26.5 5 Sudeste 24 Sur 0 -- -- 49
2019-09-21 14:00:00 27.6 8 Nordeste 28 Sur 0 -- -- 48
2019-09-21 13:00:00 27 6 Sudeste 18 Sudeste 0 -- -- 49
2019-09-21 12:00:00 25.7 6 Sudeste 22 Este 0 -- -- 56
2019-09-21 11:00:00 24.5 6 Sur 20 Este 0 -- -- 60
2019-09-21 10:00:00 23.8 5 Sudeste 21 Nordeste 0 -- -- 62
2019-09-21 09:00:00 21.7 4 Este 22 Este 0 -- -- 67
2019-09-21 08:00:00 21.6 6 Este 21 Este 0 -- -- 66
2019-09-21 07:00:00 21.5 3 Nordeste 23 Sudeste 0 -- -- 64
2019-09-21 06:00:00 21.5 9 Sudeste 32 Sur 0 -- -- 65
2019-09-21 05:00:00 21.7 15 Sudeste 32 Este 0 -- -- 64
2019-09-21 04:00:00 21.9 22 Este 32 Este 0 -- -- 65
2019-09-21 03:00:00 21.4 4 Este 20 Sudoeste 0 -- -- 63
2019-09-21 02:00:00 21.8 9 Este 28 Sudeste 0 -- -- 64
2019-09-21 01:00:00 22.3 13 Sudeste 38 Sudeste 0 -- -- 61
2019-09-21 00:00:00 22.6 18 Sudeste 54 Sur 0 -- -- 54
2019-09-20 23:00:00 22.5 24 Sur 44 Sur 0 -- -- 58
2019-09-20 22:00:00 22.7 19 Sur 61 Sur 2.4 -- -- 70
2019-09-20 21:00:00 21.2 36 Sur 64 Sur 2.4 -- -- 67
2019-09-20 20:00:00 26.1 6 Sur 16 Este 0 -- -- 55
2019-09-20 19:00:00 27.8 7 Sudeste 24 Sudeste 0 -- -- 50
2019-09-20 18:00:00 29.6 9 Sudeste 26 Sudeste 0 -- -- 44
2019-09-20 17:00:00 30.7 10 Sudeste 24 Sudeste 0 -- -- 43
2019-09-20 16:00:00 30.5 12 Sudeste 26 Sudeste 0 -- -- 44
2019-09-20 15:00:00 30 12 Sudeste 28 Sur 0 -- -- 44
2019-09-20 14:00:00 28.6 13 Sudeste 29 Sudeste 0 -- -- 50
2019-09-20 13:00:00 23.8 10 Este 18 Este 0 -- -- 75
2019-09-20 12:00:00 22.2 12 Este 18 Este 0 -- -- 79
2019-09-20 11:00:00 21.2 10 Este 19 Este 0 -- -- 81
2019-09-20 10:00:00 20.1 9 Este 15 Este 0 -- -- 83
2019-09-20 09:00:00 19.5 9 Sudeste 13 Este 0 -- -- 85
2019-09-20 08:00:00 18.1 9 Sudeste 21 Este 0 -- -- 88
2019-09-20 07:00:00 17.4 15 Este 21 Sudeste 0 -- -- 91
2019-09-20 06:00:00 17.5 11 Este 16 Este 0 -- -- 88
2019-09-20 05:00:00 18.3 11 Este 19 Sudeste 0 -- -- 81
2019-09-20 04:00:00 18.2 11 Sudeste 20 Sudeste 0 -- -- 85
2019-09-20 03:00:00 18 10 Sudeste 17 Sudeste 0 -- -- 86
2019-09-20 02:00:00 17.4 8 Sudeste 12 Sudeste 0 -- -- 86
2019-09-20 01:00:00 17.1 7 Sudeste 10 Sudeste 0 -- -- 86
2019-09-20 00:00:00 16.9 2 Sudeste 9 Sur 0 -- -- 84
2019-09-19 23:00:00 16.7 7 Sudeste 10 Sudoeste 0 -- -- 86
2019-09-19 22:00:00 16.9 5 Sudeste 8 Sudeste 0 -- -- 84
2019-09-19 21:00:00 17.3 5 Sudeste 18 Este 0 -- -- 81
2019-09-19 20:00:00 17.9 10 Sudeste 20 Este 0 -- -- 80
2019-09-19 19:00:00 18.9 12 Este 17 Este 0 -- -- 76
2019-09-19 18:00:00 19.6 11 Nordeste 15 Este 0 -- -- 73
2019-09-19 17:00:00 20.5 7 Nordeste 12 Norte 0 -- -- 69
2019-09-19 16:00:00 22.1 7 Noroeste 15 Noroeste 0 -- -- 67
2019-09-19 15:00:00 22 7 Noroeste 20 Oeste 0 -- -- 68
2019-09-19 14:00:00 20.4 19 Oeste 24 Oeste 0 -- -- 83
2019-09-19 13:00:00 20.1 22 Oeste 26 Oeste 0 -- -- 83
2019-09-19 12:00:00 20.3 15 Oeste 26 Oeste 0 -- -- 82
2019-09-19 11:00:00 19.9 15 Oeste 33 Oeste 0 -- -- 84
2019-09-19 10:00:00 19.3 22 Oeste 34 Oeste 0 -- -- 85
2019-09-19 09:00:00 18.6 19 Oeste 31 Sudoeste 0 -- -- 87
2019-09-19 08:00:00 18 17 Oeste 28 Oeste 0 -- -- 89
2019-09-19 07:00:00 17.8 19 Oeste 32 Oeste 0 -- -- 89
2019-09-19 06:00:00 17.7 21 Oeste 36 Oeste 0 -- -- 89
2019-09-19 05:00:00 17.8 22 Oeste 35 Oeste 0 -- -- 91
2019-09-19 04:00:00 17.9 26 Oeste 36 Sudoeste 0 -- -- 91
2019-09-19 03:00:00 17.9 22 Oeste 34 Oeste 0 -- -- 90
2019-09-19 02:00:00 18 22 Oeste 38 Sudoeste 0 -- -- 89
2019-09-19 01:00:00 18.1 22 Oeste 40 Oeste 0 -- -- 90
2019-09-19 00:00:00 18.5 21 Oeste 35 Oeste 0 -- -- 90
2019-09-18 23:00:00 18.7 26 Oeste 31 Oeste 0 -- -- 88
2019-09-18 22:00:00 18.7 18 Oeste 31 Oeste 0 -- -- 90
2019-09-18 21:00:00 18.8 19 Oeste 25 Oeste 0 -- -- 88
2019-09-18 20:00:00 19.1 7 Noroeste 15 Noroeste 0 -- -- 87
2019-09-18 19:00:00 19.8 12 Noroeste 21 Noroeste 0 -- -- 85
2019-09-18 18:00:00 20.7 18 Noroeste 25 Noroeste 0 -- -- 84
2019-09-18 17:00:00 20.5 19 Oeste 23 Oeste 0 -- -- 87
2019-09-18 16:00:00 20.4 17 Oeste 22 Oeste 0 -- -- 87
2019-09-18 15:00:00 20.8 18 Oeste 34 Oeste 0 -- -- 89
2019-09-18 14:00:00 20.6 29 Oeste 50 Oeste 0 -- -- 93
2019-09-18 13:00:00 20.4 37 Oeste 46 Oeste 0 -- -- 91
2019-09-18 12:00:00 20.6 22 Oeste 35 Oeste 0 -- -- 88
2019-09-18 11:00:00 20.2 15 Oeste 26 Oeste 0 -- -- 90
2019-09-18 10:00:00 20.3 15 Oeste 29 Sudoeste 0 -- -- 91
2019-09-18 09:00:00 19.8 18 Oeste 36 Oeste 0 -- -- 93
2019-09-18 08:00:00 19.6 23 Oeste 39 Oeste 0 -- -- 94
2019-09-18 07:00:00 19.8 23 Oeste 39 Sudoeste 0 -- -- 91
2019-09-18 06:00:00 19.9 23 Oeste 34 Oeste 0 -- -- 89
2019-09-18 05:00:00 19.6 16 Oeste 38 Oeste 0 -- -- 91
2019-09-18 04:00:00 19.7 17 Oeste 42 Oeste 0 -- -- 94
2019-09-18 03:00:00 19.8 27 Oeste 44 Oeste 0 -- -- 96
2019-09-18 02:00:00 19.8 28 Oeste 43 Oeste 0 -- -- 95
2019-09-18 01:00:00 19.9 28 Oeste 39 Oeste 0 -- -- 94
2019-09-18 00:00:00 19.9 25 Oeste 33 Sudoeste 0 -- -- 95
2019-09-17 23:00:00 19.9 21 Oeste 29 Oeste 0 -- -- 96
2019-09-17 22:00:00 19.7 16 Oeste 23 Oeste 0 -- -- 96
2019-09-17 21:00:00 19.8 9 Oeste 17 Oeste 0 -- -- 96